sensor_id;sensor_type;location;lat;lon;timestamp;temperature;humidity
47114;DHT22;32867;51.556;6.832;2024-03-23T00:56:37;8.40;33.00
47114;DHT22;32867;51.556;6.832;2024-03-23T01:01:37;8.10;99.90
47114;DHT22;32867;51.556;6.832;2024-03-23T01:06:38;7.70;99.90
47114;DHT22;32867;51.556;6.832;2024-03-23T01:11:39;7.40;87.90
47114;DHT22;32867;51.556;6.832;2024-03-23T01:16:40;7.10;99.90
47114;DHT22;32867;51.556;6.832;2024-03-23T01:21:40;7.60;99.90
47114;DHT22;32867;51.556;6.832;2024-03-23T01:26:41;8.00;98.70
47114;DHT22;32867;51.556;6.832;2024-03-23T01:31:42;8.50;52.20
47114;DHT22;32867;51.556;6.832;2024-03-23T01:36:42;8.70;42.50
47114;DHT22;32867;51.556;6.832;2024-03-23T01:41:43;8.90;39.60
47114;DHT22;32867;51.556;6.832;2024-03-23T01:46:44;8.90;11.90
47114;DHT22;32867;51.556;6.832;2024-03-23T01:51:45;9.00;16.30
47114;DHT22;32867;51.556;6.832;2024-03-23T01:56:45;9.00;10.50
47114;DHT22;32867;51.556;6.832;2024-03-23T02:01:46;8.80;15.50
47114;DHT22;32867;51.556;6.832;2024-03-23T02:06:49;8.80;31.80
47114;DHT22;32867;51.556;6.832;2024-03-23T02:11:49;8.80;31.20
47114;DHT22;32867;51.556;6.832;2024-03-23T02:16:50;8.60;26.00
47114;DHT22;32867;51.556;6.832;2024-03-23T02:21:51;8.20;95.90
47114;DHT22;32867;51.556;6.832;2024-03-23T02:26:51;8.40;99.90
47114;DHT22;32867;51.556;6.832;2024-03-23T02:31:52;8.30;99.90
47114;DHT22;32867;51.556;6.832;2024-03-23T02:36:52;8.60;99.90
47114;DHT22;32867;51.556;6.832;2024-03-23T02:41:53;8.90;99.90
47114;DHT22;32867;51.556;6.832;2024-03-23T02:46:54;8.70;46.80
47114;DHT22;32867;51.556;6.832;2024-03-23T02:51:54;8.40;99.90
47114;DHT22;32867;51.556;6.832;2024-03-23T02:56:55;8.10;99.90
47114;DHT22;32867;51.556;6.832;2024-03-23T03:01:56;7.40;99.90
47114;DHT22;32867;51.556;6.832;2024-03-23T03:06:56;7.20;1.00
47114;DHT22;32867;51.556;6.832;2024-03-23T03:11:57;7.40;1.00
47114;DHT22;32867;51.556;6.832;2024-03-23T03:16:58;7.10;59.90
47114;DHT22;32867;51.556;6.832;2024-03-23T03:21:58;7.00;27.80
47114;DHT22;32867;51.556;6.832;2024-03-23T03:26:59;6.90;99.90
47114;DHT22;32867;51.556;6.832;2024-03-23T03:31:59;7.00;99.90
47114;DHT22;32867;51.556;6.832;2024-03-23T03:37:00;7.50;1.00
47114;DHT22;32867;51.556;6.832;2024-03-23T03:42:02;7.90;99.90
47114;DHT22;32867;51.556;6.832;2024-03-23T03:47:07;7.50;99.90
47114;DHT22;32867;51.556;6.832;2024-03-23T03:52:07;7.50;99.90
47114;DHT22;32867;51.556;6.832;2024-03-23T03:57:08;7.00;99.90
47114;DHT22;32867;51.556;6.832;2024-03-23T04:02:09;7.10;1.00
47114;DHT22;32867;51.556;6.832;2024-03-23T04:07:09;7.10;1.00
47114;DHT22;32867;51.556;6.832;2024-03-23T04:12:10;7.20;99.90
47114;DHT22;32867;51.556;6.832;2024-03-23T04:17:11;7.20;99.90
47114;DHT22;32867;51.556;6.832;2024-03-23T04:22:11;6.90;1.00
47114;DHT22;32867;51.556;6.832;2024-03-23T04:27:12;6.60;99.90
47114;DHT22;32867;51.556;6.832;2024-03-23T04:32:13;6.50;99.90
47114;DHT22;32867;51.556;6.832;2024-03-23T04:37:14;6.70;99.90
47114;DHT22;32867;51.556;6.832;2024-03-23T04:42:17;6.80;99.90
47114;DHT22;32867;51.556;6.832;2024-03-23T04:47:17;6.50;99.90
47114;DHT22;32867;51.556;6.832;2024-03-23T04:52:19;6.50;99.90
47114;DHT22;32867;51.556;6.832;2024-03-23T04:57:19;6.50;99.90
47114;DHT22;32867;51.556;6.832;2024-03-23T05:02:23;6.60;1.00
47114;DHT22;32867;51.556;6.832;2024-03-23T05:07:23;6.40;1.00
47114;DHT22;32867;51.556;6.832;2024-03-23T05:12:24;6.30;1.00
47114;DHT22;32867;51.556;6.832;2024-03-23T05:17:25;6.50;43.50
47114;DHT22;32867;51.556;6.832;2024-03-23T05:22:25;6.60;9.80
47114;DHT22;32867;51.556;6.832;2024-03-23T05:27:27;6.40;99.90
47114;DHT22;32867;51.556;6.832;2024-03-23T05:32:28;6.30;96.50
47114;DHT22;32867;51.556;6.832;2024-03-23T05:37:28;6.40;99.90
47114;DHT22;32867;51.556;6.832;2024-03-23T05:42:31;6.50;99.90
47114;DHT22;32867;51.556;6.832;2024-03-23T05:47:32;6.40;99.90
47114;DHT22;32867;51.556;6.832;2024-03-23T05:52:33;6.50;99.90
47114;DHT22;32867;51.556;6.832;2024-03-23T05:57:33;6.50;99.90
47114;DHT22;32867;51.556;6.832;2024-03-23T06:02:34;6.40;99.90
47114;DHT22;32867;51.556;6.832;2024-03-23T06:07:35;6.40;99.90
47114;DHT22;32867;51.556;6.832;2024-03-23T06:12:36;6.30;99.90
47114;DHT22;32867;51.556;6.832;2024-03-23T06:17:37;6.30;99.90
47114;DHT22;32867;51.556;6.832;2024-03-23T06:22:38;6.30;95.10
47114;DHT22;32867;51.556;6.832;2024-03-23T06:27:38;6.40;99.90
47114;DHT22;32867;51.556;6.832;2024-03-23T06:32:42;6.20;52.50
47114;DHT22;32867;51.556;6.832;2024-03-23T06:37:43;6.20;99.90
47114;DHT22;32867;51.556;6.832;2024-03-23T06:42:43;6.20;99.90
47114;DHT22;32867;51.556;6.832;2024-03-23T06:47:44;6.20;99.90
47114;DHT22;32867;51.556;6.832;2024-03-23T06:52:45;6.50;1.00
47114;DHT22;32867;51.556;6.832;2024-03-23T06:57:45;6.60;1.00
47114;DHT22;32867;51.556;6.832;2024-03-23T07:02:46;6.60;1.00
47114;DHT22;32867;51.556;6.832;2024-03-23T07:07:47;6.70;1.00
47114;DHT22;32867;51.556;6.832;2024-03-23T07:12:48;6.80;99.90
47114;DHT22;32867;51.556;6.832;2024-03-23T07:17:48;7.00;99.90
47114;DHT22;32867;51.556;6.832;2024-03-23T07:22:49;7.10;99.90
47114;DHT22;32867;51.556;6.832;2024-03-23T07:27:49;7.10;99.90
47114;DHT22;32867;51.556;6.832;2024-03-23T07:32:50;7.10;99.90
47114;DHT22;32867;51.556;6.832;2024-03-23T07:37:51;7.20;99.90
47114;DHT22;32867;51.556;6.832;2024-03-23T07:42:51;7.50;1.00
47114;DHT22;32867;51.556;6.832;2024-03-23T07:47:53;7.50;99.90
47114;DHT22;32867;51.556;6.832;2024-03-23T07:52:53;7.60;99.90
47114;DHT22;32867;51.556;6.832;2024-03-23T07:57:54;7.80;99.90
47114;DHT22;32867;51.556;6.832;2024-03-23T08:02:55;7.70;99.90
47114;DHT22;32867;51.556;6.832;2024-03-23T08:07:55;7.70;99.90
47114;DHT22;32867;51.556;6.832;2024-03-23T08:12:56;8.10;99.90
47114;DHT22;32867;51.556;6.832;2024-03-23T08:17:57;8.20;65.40
47114;DHT22;32867;51.556;6.832;2024-03-23T08:22:57;8.20;77.70
47114;DHT22;32867;51.556;6.832;2024-03-23T08:27:58;8.30;49.60
47114;DHT22;32867;51.556;6.832;2024-03-23T08:32:59;8.30;23.40
47114;DHT22;32867;51.556;6.832;2024-03-23T08:38:00;8.30;4.50
47114;DHT22;32867;51.556;6.832;2024-03-23T08:43:00;7.90;1.00
47114;DHT22;32867;51.556;6.832;2024-03-23T08:48:01;8.30;1.00
47114;DHT22;32867;51.556;6.832;2024-03-23T08:53:01;8.60;1.00
47114;DHT22;32867;51.556;6.832;2024-03-23T08:58:02;8.40;1.00
47114;DHT22;32867;51.556;6.832;2024-03-23T09:03:04;8.20;1.00
47114;DHT22;32867;51.556;6.832;2024-03-23T09:08:05;8.20;1.00
47114;DHT22;32867;51.556;6.832;2024-03-23T09:13:07;8.40;1.00
47114;DHT22;32867;51.556;6.832;2024-03-23T09:18:08;7.80;1.00
47114;DHT22;32867;51.556;6.832;2024-03-23T09:23:08;8.00;1.00
47114;DHT22;32867;51.556;6.832;2024-03-23T09:28:09;8.20;1.00
47114;DHT22;32867;51.556;6.832;2024-03-23T09:33:11;8.10;1.00
47114;DHT22;32867;51.556;6.832;2024-03-23T09:38:12;7.90;1.00
47114;DHT22;32867;51.556;6.832;2024-03-23T09:43:12;7.80;1.00
47114;DHT22;32867;51.556;6.832;2024-03-23T09:48:13;7.90;1.00
47114;DHT22;32867;51.556;6.832;2024-03-23T09:53:14;7.80;1.00
47114;DHT22;32867;51.556;6.832;2024-03-23T09:58:18;8.10;1.00
47114;DHT22;32867;51.556;6.832;2024-03-23T10:03:19;8.40;1.00
47114;DHT22;32867;51.556;6.832;2024-03-23T10:08:19;8.60;1.00
47114;DHT22;32867;51.556;6.832;2024-03-23T10:13:27;8.50;1.00
47114;DHT22;32867;51.556;6.832;2024-03-23T10:18:29;8.40;1.00
47114;DHT22;32867;51.556;6.832;2024-03-23T10:23:30;8.10;1.00
47114;DHT22;32867;51.556;6.832;2024-03-23T10:28:31;8.80;1.00
47114;DHT22;32867;51.556;6.832;2024-03-23T10:33:32;9.70;1.00
47114;DHT22;32867;51.556;6.832;2024-03-23T10:38:34;9.40;1.00
47114;DHT22;32867;51.556;6.832;2024-03-23T10:43:34;8.60;1.00
47114;DHT22;32867;51.556;6.832;2024-03-23T10:48:36;8.40;1.00
47114;DHT22;32867;51.556;6.832;2024-03-23T10:53:37;7.80;1.00
47114;DHT22;32867;51.556;6.832;2024-03-23T10:58:40;7.50;1.00
47114;DHT22;32867;51.556;6.832;2024-03-23T11:03:45;7.90;1.00
47114;DHT22;32867;51.556;6.832;2024-03-23T11:08:46;8.30;1.00
47114;DHT22;32867;51.556;6.832;2024-03-23T11:13:54;8.40;1.00
47114;DHT22;32867;51.556;6.832;2024-03-23T11:19:33;8.90;1.00
47114;DHT22;32867;51.556;6.832;2024-03-23T11:24:34;9.70;1.00
47114;DHT22;32867;51.556;6.832;2024-03-23T11:29:34;9.50;1.00
47114;DHT22;32867;51.556;6.832;2024-03-23T11:34:35;9.00;1.00
47114;DHT22;32867;51.556;6.832;2024-03-23T11:39:36;9.90;1.00
47114;DHT22;32867;51.556;6.832;2024-03-23T11:44:37;9.60;1.00
47114;DHT22;32867;51.556;6.832;2024-03-23T11:49:38;9.60;1.00
47114;DHT22;32867;51.556;6.832;2024-03-23T11:54:41;10.40;1.00
47114;DHT22;32867;51.556;6.832;2024-03-23T11:59:42;10.10;1.00
47114;DHT22;32867;51.556;6.832;2024-03-23T12:04:44;10.20;1.00
47114;DHT22;32867;51.556;6.832;2024-03-23T12:09:46;7.80;1.00
47114;DHT22;32867;51.556;6.832;2024-03-23T12:15:07;7.90;1.00
47114;DHT22;32867;51.556;6.832;2024-03-23T12:20:08;8.20;1.00
47114;DHT22;32867;51.556;6.832;2024-03-23T12:25:09;8.60;1.00
47114;DHT22;32867;51.556;6.832;2024-03-23T12:30:10;9.50;1.00
47114;DHT22;32867;51.556;6.832;2024-03-23T12:35:11;9.70;1.00
47114;DHT22;32867;51.556;6.832;2024-03-23T12:40:12;10.20;1.00
47114;DHT22;32867;51.556;6.832;2024-03-23T12:45:12;10.30;1.00
47114;DHT22;32867;51.556;6.832;2024-03-23T12:50:13;10.00;1.00
47114;DHT22;32867;51.556;6.832;2024-03-23T12:55:14;9.60;1.00
47114;DHT22;32867;51.556;6.832;2024-03-23T13:00:15;8.70;1.00
47114;DHT22;32867;51.556;6.832;2024-03-23T13:05:18;7.80;1.00
47114;DHT22;32867;51.556;6.832;2024-03-23T13:10:19;7.50;1.00
47114;DHT22;32867;51.556;6.832;2024-03-23T13:15:20;7.40;1.00
47114;DHT22;32867;51.556;6.832;2024-03-23T13:20:21;7.20;1.00
47114;DHT22;32867;51.556;6.832;2024-03-23T13:25:21;7.20;1.00
47114;DHT22;32867;51.556;6.832;2024-03-23T13:30:22;7.30;1.00
47114;DHT22;32867;51.556;6.832;2024-03-23T13:35:22;7.60;1.00
47114;DHT22;32867;51.556;6.832;2024-03-23T13:40:23;7.80;1.00
47114;DHT22;32867;51.556;6.832;2024-03-23T13:45:23;8.10;1.00
47114;DHT22;32867;51.556;6.832;2024-03-23T13:50:25;8.20;1.00
47114;DHT22;32867;51.556;6.832;2024-03-23T13:55:26;8.50;1.00
47114;DHT22;32867;51.556;6.832;2024-03-23T14:00:26;8.80;1.00
47114;DHT22;32867;51.556;6.832;2024-03-23T14:05:27;9.10;1.00
47114;DHT22;32867;51.556;6.832;2024-03-23T14:10:27;9.50;1.00
47114;DHT22;32867;51.556;6.832;2024-03-23T14:15:28;10.10;1.00
47114;DHT22;32867;51.556;6.832;2024-03-23T14:20:30;9.40;1.00
47114;DHT22;32867;51.556;6.832;2024-03-23T14:25:31;9.40;1.00
47114;DHT22;32867;51.556;6.832;2024-03-23T14:30:32;9.00;1.00
47114;DHT22;32867;51.556;6.832;2024-03-23T14:35:32;9.10;1.00
47114;DHT22;32867;51.556;6.832;2024-03-23T14:40:33;9.30;1.00
47114;DHT22;32867;51.556;6.832;2024-03-23T14:45:34;9.60;1.00
47114;DHT22;32867;51.556;6.832;2024-03-23T14:50:34;10.20;1.00
47114;DHT22;32867;51.556;6.832;2024-03-23T14:55:35;10.30;1.00
47114;DHT22;32867;51.556;6.832;2024-03-23T15:00:36;10.70;1.00
47114;DHT22;32867;51.556;6.832;2024-03-23T15:05:37;10.00;1.00
47114;DHT22;32867;51.556;6.832;2024-03-23T15:10:37;9.50;1.00
47114;DHT22;32867;51.556;6.832;2024-03-23T15:15:39;9.60;1.00
47114;DHT22;32867;51.556;6.832;2024-03-23T15:20:41;10.60;1.00
47114;DHT22;32867;51.556;6.832;2024-03-23T15:25:42;10.50;1.00
47114;DHT22;32867;51.556;6.832;2024-03-23T15:30:43;11.50;1.00
47114;DHT22;32867;51.556;6.832;2024-03-23T15:35:43;10.80;1.00
47114;DHT22;32867;51.556;6.832;2024-03-23T15:40:51;10.60;1.00
47114;DHT22;32867;51.556;6.832;2024-03-23T15:45:59;10.60;1.00
47114;DHT22;32867;51.556;6.832;2024-03-23T15:51:04;10.60;1.00
47114;DHT22;32867;51.556;6.832;2024-03-23T15:56:05;10.30;1.00
47114;DHT22;32867;51.556;6.832;2024-03-23T16:01:07;11.00;1.00
47114;DHT22;32867;51.556;6.832;2024-03-23T16:06:11;10.20;1.00
47114;DHT22;32867;51.556;6.832;2024-03-23T16:11:11;10.10;1.00
47114;DHT22;32867;51.556;6.832;2024-03-23T16:16:12;9.80;1.00
47114;DHT22;32867;51.556;6.832;2024-03-23T16:21:13;9.40;1.00
47114;DHT22;32867;51.556;6.832;2024-03-23T16:26:13;8.90;1.00
47114;DHT22;32867;51.556;6.832;2024-03-23T16:31:16;8.80;1.00
47114;DHT22;32867;51.556;6.832;2024-03-23T16:36:17;8.30;1.00
47114;DHT22;32867;51.556;6.832;2024-03-23T16:41:18;8.40;1.00
47114;DHT22;32867;51.556;6.832;2024-03-23T16:46:19;6.90;1.00
47114;DHT22;32867;51.556;6.832;2024-03-23T16:51:20;6.30;1.00
47114;DHT22;32867;51.556;6.832;2024-03-23T16:56:21;6.00;15.20
47114;DHT22;32867;51.556;6.832;2024-03-23T17:01:21;5.80;63.80
47114;DHT22;32867;51.556;6.832;2024-03-23T17:06:24;5.50;99.90
47114;DHT22;32867;51.556;6.832;2024-03-23T17:11:25;5.80;99.20
47114;DHT22;32867;51.556;6.832;2024-03-23T17:16:26;6.00;42.40
47114;DHT22;32867;51.556;6.832;2024-03-23T17:21:30;6.00;39.40
47114;DHT22;32867;51.556;6.832;2024-03-23T17:26:31;6.50;28.70
47114;DHT22;32867;51.556;6.832;2024-03-23T17:31:33;6.90;1.00
47114;DHT22;32867;51.556;6.832;2024-03-23T17:36:34;7.10;1.00
47114;DHT22;32867;51.556;6.832;2024-03-23T17:41:35;6.50;1.00
47114;DHT22;32867;51.556;6.832;2024-03-23T17:46:37;5.90;1.00
47114;DHT22;32867;51.556;6.832;2024-03-23T17:51:38;5.90;2.00
47114;DHT22;32867;51.556;6.832;2024-03-23T17:56:39;6.00;5.60
47114;DHT22;32867;51.556;6.832;2024-03-23T18:01:39;5.80;17.00
47114;DHT22;32867;51.556;6.832;2024-03-23T18:06:40;5.90;8.40
47114;DHT22;32867;51.556;6.832;2024-03-23T18:11:41;6.00;1.00
47114;DHT22;32867;51.556;6.832;2024-03-23T18:16:42;5.90;1.00
47114;DHT22;32867;51.556;6.832;2024-03-23T18:21:42;5.80;1.00
47114;DHT22;32867;51.556;6.832;2024-03-23T18:26:43;6.00;1.00
47114;DHT22;32867;51.556;6.832;2024-03-23T18:31:44;6.30;1.00
47114;DHT22;32867;51.556;6.832;2024-03-23T18:36:44;6.40;1.00
47114;DHT22;32867;51.556;6.832;2024-03-23T18:41:45;6.40;1.00
47114;DHT22;32867;51.556;6.832;2024-03-23T18:46:46;5.70;1.00
47114;DHT22;32867;51.556;6.832;2024-03-23T18:51:47;5.70;1.00
47114;DHT22;32867;51.556;6.832;2024-03-23T18:56:48;5.50;1.00
47114;DHT22;32867;51.556;6.832;2024-03-23T19:01:49;5.50;1.00
47114;DHT22;32867;51.556;6.832;2024-03-23T19:06:50;5.60;1.00
47114;DHT22;32867;51.556;6.832;2024-03-23T19:11:50;5.90;1.00
47114;DHT22;32867;51.556;6.832;2024-03-23T19:16:51;5.90;1.00
47114;DHT22;32867;51.556;6.832;2024-03-23T19:21:54;5.80;1.00
47114;DHT22;32867;51.556;6.832;2024-03-23T19:26:54;5.80;1.00
47114;DHT22;32867;51.556;6.832;2024-03-23T19:31:55;5.90;1.00
47114;DHT22;32867;51.556;6.832;2024-03-23T19:36:55;5.80;1.00
47114;DHT22;32867;51.556;6.832;2024-03-23T19:41:56;5.80;1.00
47114;DHT22;32867;51.556;6.832;2024-03-23T19:46:57;5.90;1.00
47114;DHT22;32867;51.556;6.832;2024-03-23T19:51:57;5.80;1.00
47114;DHT22;32867;51.556;6.832;2024-03-23T19:56:58;5.70;1.00
47114;DHT22;32867;51.556;6.832;2024-03-23T20:01:59;5.90;1.00
47114;DHT22;32867;51.556;6.832;2024-03-23T20:07:00;5.70;1.00
47114;DHT22;32867;51.556;6.832;2024-03-23T20:12:01;5.80;1.00
47114;DHT22;32867;51.556;6.832;2024-03-23T20:17:03;5.90;1.00
47114;DHT22;32867;51.556;6.832;2024-03-23T20:22:04;6.40;1.00
47114;DHT22;32867;51.556;6.832;2024-03-23T20:27:06;6.10;1.00
47114;DHT22;32867;51.556;6.832;2024-03-23T20:32:06;6.00;10.50
47114;DHT22;32867;51.556;6.832;2024-03-23T20:37:07;6.00;7.20
47114;DHT22;32867;51.556;6.832;2024-03-23T20:42:08;6.20;1.00
47114;DHT22;32867;51.556;6.832;2024-03-23T20:47:09;6.30;1.00
47114;DHT22;32867;51.556;6.832;2024-03-23T20:52:10;6.60;1.00
47114;DHT22;32867;51.556;6.832;2024-03-23T20:57:11;6.50;1.00
47114;DHT22;32867;51.556;6.832;2024-03-23T21:02:12;6.60;1.00
47114;DHT22;32867;51.556;6.832;2024-03-23T21:07:12;6.40;1.00
47114;DHT22;32867;51.556;6.832;2024-03-23T21:12:13;6.30;1.00
47114;DHT22;32867;51.556;6.832;2024-03-23T21:17:13;6.50;1.00
47114;DHT22;32867;51.556;6.832;2024-03-23T21:22:14;6.50;1.00
47114;DHT22;32867;51.556;6.832;2024-03-23T21:27:15;6.20;1.00
47114;DHT22;32867;51.556;6.832;2024-03-23T21:32:16;6.30;1.00
47114;DHT22;32867;51.556;6.832;2024-03-23T21:37:18;6.20;1.00
47114;DHT22;32867;51.556;6.832;2024-03-23T21:42:20;6.10;1.00
47114;DHT22;32867;51.556;6.832;2024-03-23T21:47:21;6.30;1.00
47114;DHT22;32867;51.556;6.832;2024-03-23T21:52:22;6.30;1.00
47114;DHT22;32867;51.556;6.832;2024-03-23T21:57:23;6.20;1.00
47114;DHT22;32867;51.556;6.832;2024-03-23T22:02:24;6.20;1.00
47114;DHT22;32867;51.556;6.832;2024-03-23T22:07:25;6.10;2.10
47114;DHT22;32867;51.556;6.832;2024-03-23T22:12:27;6.10;1.80
47114;DHT22;32867;51.556;6.832;2024-03-23T22:17:28;6.20;1.00
47114;DHT22;32867;51.556;6.832;2024-03-23T22:22:28;5.90;21.00
47114;DHT22;32867;51.556;6.832;2024-03-23T22:27:29;6.00;26.40
47114;DHT22;32867;51.556;6.832;2024-03-23T22:32:30;5.90;23.80
47114;DHT22;32867;51.556;6.832;2024-03-23T22:37:32;6.00;27.60
47114;DHT22;32867;51.556;6.832;2024-03-23T22:42:33;6.10;28.60
47114;DHT22;32867;51.556;6.832;2024-03-23T22:47:33;6.00;34.80
47114;DHT22;32867;51.556;6.832;2024-03-23T22:52:34;6.00;34.20
47114;DHT22;32867;51.556;6.832;2024-03-23T22:57:35;5.80;58.40
47114;DHT22;32867;51.556;6.832;2024-03-23T23:02:36;5.50;77.60
47114;DHT22;32867;51.556;6.832;2024-03-23T23:07:36;5.80;77.40
47114;DHT22;32867;51.556;6.832;2024-03-23T23:12:37;5.70;92.60
47114;DHT22;32867;51.556;6.832;2024-03-23T23:17:38;5.70;97.00
47114;DHT22;32867;51.556;6.832;2024-03-23T23:22:38;5.60;99.90
47114;DHT22;32867;51.556;6.832;2024-03-23T23:27:39;5.80;99.90
47114;DHT22;32867;51.556;6.832;2024-03-23T23:32:41;5.60;99.90
47114;DHT22;32867;51.556;6.832;2024-03-23T23:37:42;5.40;99.90
47114;DHT22;32867;51.556;6.832;2024-03-23T23:42:43;5.30;99.90
47114;DHT22;32867;51.556;6.832;2024-03-23T23:47:43;5.70;99.90
47114;DHT22;32867;51.556;6.832;2024-03-23T23:52:44;5.90;99.90
47114;DHT22;32867;51.556;6.832;2024-03-23T23:57:44;5.70;99.90
